sensor_id;sensor_type;location;lat;lon;timestamp;pressure;altitude;pressure_sealevel;temperature;humidity
79136;BME280;68533;51.090;17.216;2023-09-30T00:02:13;100283.03;;;16.28;95.31
79136;BME280;68533;51.090;17.216;2023-09-30T00:04:39;100280.91;;;16.34;95.33
79136;BME280;68533;51.090;17.216;2023-09-30T00:07:07;100279.41;;;16.19;96.81
79136;BME280;68533;51.090;17.216;2023-09-30T00:09:33;100271.41;;;16.00;98.77
79136;BME280;68533;51.090;17.216;2023-09-30T00:11:59;100273.50;;;15.95;100.00
79136;BME280;68533;51.090;17.216;2023-09-30T00:14:25;100274.16;;;15.91;99.37
79136;BME280;68533;51.090;17.216;2023-09-30T00:16:51;100275.16;;;16.04;97.39
79136;BME280;68533;51.090;17.216;2023-09-30T00:19:17;100279.38;;;16.02;98.14
79136;BME280;68533;51.090;17.216;2023-09-30T00:21:43;100280.38;;;16.06;97.61
79136;BME280;68533;51.090;17.216;2023-09-30T00:24:09;100275.19;;;16.21;96.40
79136;BME280;68533;51.090;17.216;2023-09-30T00:26:35;100284.97;;;16.19;97.05
79136;BME280;68533;51.090;17.216;2023-09-30T00:29:01;100275.66;;;16.15;97.81
79136;BME280;68533;51.090;17.216;2023-09-30T00:31:33;100278.91;;;16.17;96.82
79136;BME280;68533;51.090;17.216;2023-09-30T00:33:59;100282.38;;;16.22;95.94
79136;BME280;68533;51.090;17.216;2023-09-30T00:36:25;100283.50;;;16.21;96.71
79136;BME280;68533;51.090;17.216;2023-09-30T00:38:52;100284.00;;;16.15;98.68
79136;BME280;68533;51.090;17.216;2023-09-30T00:41:18;100281.84;;;16.12;99.53
79136;BME280;68533;51.090;17.216;2023-09-30T00:43:47;100286.59;;;16.11;100.00
79136;BME280;68533;51.090;17.216;2023-09-30T00:46:31;100292.28;;;16.06;100.00
79136;BME280;68533;51.090;17.216;2023-09-30T00:48:58;100280.69;;;16.04;100.00
79136;BME280;68533;51.090;17.216;2023-09-30T00:51:26;100294.09;;;16.11;100.00
79136;BME280;68533;51.090;17.216;2023-09-30T00:53:53;100294.91;;;16.11;100.00
79136;BME280;68533;51.090;17.216;2023-09-30T00:56:23;100290.19;;;16.12;100.00
79136;BME280;68533;51.090;17.216;2023-09-30T00:58:51;100275.66;;;16.06;100.00
79136;BME280;68533;51.090;17.216;2023-09-30T01:01:19;100281.03;;;16.11;100.00
79136;BME280;68533;51.090;17.216;2023-09-30T01:03:48;100282.03;;;16.07;100.00
79136;BME280;68533;51.090;17.216;2023-09-30T01:06:15;100285.44;;;16.04;100.00
79136;BME280;68533;51.090;17.216;2023-09-30T01:08:41;100283.31;;;16.18;99.24
79136;BME280;68533;51.090;17.216;2023-09-30T01:11:07;100287.41;;;16.12;100.00
79136;BME280;68533;51.090;17.216;2023-09-30T01:13:36;100294.75;;;16.08;100.00
79136;BME280;68533;51.090;17.216;2023-09-30T01:16:07;100290.00;;;16.08;100.00
79136;BME280;68533;51.090;17.216;2023-09-30T01:18:37;100293.28;;;16.10;100.00
79136;BME280;68533;51.090;17.216;2023-09-30T01:21:07;100302.91;;;16.13;100.00
79136;BME280;68533;51.090;17.216;2023-09-30T01:23:34;100305.03;;;16.16;100.00
79136;BME280;68533;51.090;17.216;2023-09-30T01:26:07;100304.06;;;16.20;100.00
79136;BME280;68533;51.090;17.216;2023-09-30T01:28:36;100292.47;;;16.18;100.00
79136;BME280;68533;51.090;17.216;2023-09-30T01:31:02;100289.53;;;16.23;100.00
79136;BME280;68533;51.090;17.216;2023-09-30T01:33:28;100294.91;;;16.20;100.00
79136;BME280;68533;51.090;17.216;2023-09-30T01:35:54;100287.91;;;16.31;100.00
79136;BME280;68533;51.090;17.216;2023-09-30T01:38:20;100290.19;;;16.38;100.00
79136;BME280;68533;51.090;17.216;2023-09-30T01:40:48;100298.69;;;16.41;99.28
79136;BME280;68533;51.090;17.216;2023-09-30T01:43:14;100297.22;;;16.44;99.57
79136;BME280;68533;51.090;17.216;2023-09-30T01:45:41;100301.97;;;16.52;99.06
79136;BME280;68533;51.090;17.216;2023-09-30T01:48:08;100302.13;;;16.55;98.93
79136;BME280;68533;51.090;17.216;2023-09-30T01:50:37;100308.03;;;16.62;98.21
79136;BME280;68533;51.090;17.216;2023-09-30T01:53:04;100310.81;;;16.71;97.59
79136;BME280;68533;51.090;17.216;2023-09-30T01:55:33;100303.13;;;16.68;98.80
79136;BME280;68533;51.090;17.216;2023-09-30T01:57:59;100313.41;;;16.67;99.04
79136;BME280;68533;51.090;17.216;2023-09-30T02:00:26;100313.56;;;16.71;98.61
79136;BME280;68533;51.090;17.216;2023-09-30T02:02:59;100304.94;;;16.73;97.76
79136;BME280;68533;51.090;17.216;2023-09-30T02:05:26;100309.34;;;16.74;98.10
79136;BME280;68533;51.090;17.216;2023-09-30T02:07:52;100308.19;;;16.75;98.28
79136;BME280;68533;51.090;17.216;2023-09-30T02:10:20;100312.59;;;16.84;97.01
79136;BME280;68533;51.090;17.216;2023-09-30T02:12:48;100309.28;;;16.99;95.62
79136;BME280;68533;51.090;17.216;2023-09-30T02:15:15;100304.38;;;17.05;95.56
79136;BME280;68533;51.090;17.216;2023-09-30T02:17:42;100312.06;;;17.08;95.58
79136;BME280;68533;51.090;17.216;2023-09-30T02:20:12;100304.03;;;17.15;94.62
79136;BME280;68533;51.090;17.216;2023-09-30T02:22:39;100302.41;;;17.14;95.91
79136;BME280;68533;51.090;17.216;2023-09-30T02:25:05;100294.88;;;17.15;95.09
79136;BME280;68533;51.090;17.216;2023-09-30T02:27:33;100299.28;;;17.24;93.42
79136;BME280;68533;51.090;17.216;2023-09-30T02:30:00;100305.28;;;17.35;94.95
79136;BME280;68533;51.090;17.216;2023-09-30T02:32:26;100314.06;;;17.54;92.91
79136;BME280;68533;51.090;17.216;2023-09-30T02:34:52;100307.16;;;17.69;91.95
79136;BME280;68533;51.090;17.216;2023-09-30T02:37:20;100317.22;;;17.82;91.53
79136;BME280;68533;51.090;17.216;2023-09-30T02:39:48;100313.38;;;17.95;91.01
79136;BME280;68533;51.090;17.216;2023-09-30T02:42:15;100317.25;;;18.03;90.28
79136;BME280;68533;51.090;17.216;2023-09-30T02:44:43;100316.78;;;18.01;91.34
79136;BME280;68533;51.090;17.216;2023-09-30T02:47:09;100323.50;;;18.00;90.37
79136;BME280;68533;51.090;17.216;2023-09-30T02:49:36;100329.38;;;18.07;89.97
79136;BME280;68533;51.090;17.216;2023-09-30T02:52:02;100329.50;;;18.10;89.67
79136;BME280;68533;51.090;17.216;2023-09-30T02:54:31;100329.66;;;18.14;89.24
79136;BME280;68533;51.090;17.216;2023-09-30T02:56:56;100329.97;;;18.12;89.32
79136;BME280;68533;51.090;17.216;2023-09-30T02:59:23;100334.19;;;18.18;88.01
79136;BME280;68533;51.090;17.216;2023-09-30T03:01:49;100336.31;;;18.21;88.83
79136;BME280;68533;51.090;17.216;2023-09-30T03:04:15;100334.19;;;18.18;88.38
79136;BME280;68533;51.090;17.216;2023-09-30T03:06:45;100339.69;;;18.06;90.47
79136;BME280;68533;51.090;17.216;2023-09-30T03:09:12;100347.03;;;18.02;89.82
79136;BME280;68533;51.090;17.216;2023-09-30T03:11:40;100340.50;;;18.07;88.65
79136;BME280;68533;51.090;17.216;2023-09-30T03:14:10;100338.81;;;18.14;88.83
79136;BME280;68533;51.090;17.216;2023-09-30T03:16:39;100344.50;;;18.18;88.81
79136;BME280;68533;51.090;17.216;2023-09-30T03:19:07;100342.81;;;18.26;88.33
79136;BME280;68533;51.090;17.216;2023-09-30T03:21:37;100341.41;;;18.19;88.90
79136;BME280;68533;51.090;17.216;2023-09-30T03:24:05;100340.44;;;18.15;89.06
79136;BME280;68533;51.090;17.216;2023-09-30T03:26:34;100341.72;;;18.18;88.06
79136;BME280;68533;51.090;17.216;2023-09-30T03:29:00;100342.06;;;18.16;88.22
79136;BME280;68533;51.090;17.216;2023-09-30T03:31:26;100349.94;;;18.14;88.22
79136;BME280;68533;51.090;17.216;2023-09-30T03:33:53;100344.91;;;18.08;87.89
79136;BME280;68533;51.090;17.216;2023-09-30T03:36:21;100355.41;;;18.02;87.77
79136;BME280;68533;51.090;17.216;2023-09-30T03:38:53;100359.16;;;18.06;88.08
79136;BME280;68533;51.090;17.216;2023-09-30T03:41:24;100363.91;;;18.06;88.77
79136;BME280;68533;51.090;17.216;2023-09-30T03:43:51;100367.53;;;17.98;88.29
79136;BME280;68533;51.090;17.216;2023-09-30T03:46:17;100359.56;;;17.88;89.40
79136;BME280;68533;51.090;17.216;2023-09-30T03:48:43;100355.53;;;17.76;90.10
79136;BME280;68533;51.090;17.216;2023-09-30T03:51:13;100363.56;;;17.78;89.36
79136;BME280;68533;51.090;17.216;2023-09-30T03:53:41;100356.06;;;17.70;90.14
79136;BME280;68533;51.090;17.216;2023-09-30T03:56:08;100365.03;;;17.58;91.40
79136;BME280;68533;51.090;17.216;2023-09-30T03:58:34;100365.88;;;17.59;89.97
79136;BME280;68533;51.090;17.216;2023-09-30T04:01:00;100375.53;;;17.53;91.22
79136;BME280;68533;51.090;17.216;2023-09-30T04:03:26;100381.75;;;17.50;90.75
79136;BME280;68533;51.090;17.216;2023-09-30T04:05:55;100383.56;;;17.45;91.08
79136;BME280;68533;51.090;17.216;2023-09-30T04:08:22;100377.38;;;17.40;91.65
79136;BME280;68533;51.090;17.216;2023-09-30T04:10:48;100383.06;;;17.43;91.80
79136;BME280;68533;51.090;17.216;2023-09-30T04:13:15;100392.72;;;17.46;90.71
79136;BME280;68533;51.090;17.216;2023-09-30T04:15:40;100391.72;;;17.51;91.13
79136;BME280;68533;51.090;17.216;2023-09-30T04:18:07;100401.88;;;17.55;91.20
79136;BME280;68533;51.090;17.216;2023-09-30T04:20:32;100395.97;;;17.57;91.44
79136;BME280;68533;51.090;17.216;2023-09-30T04:22:59;100394.69;;;17.63;91.00
79136;BME280;68533;51.090;17.216;2023-09-30T04:25:25;100397.78;;;17.53;91.71
79136;BME280;68533;51.090;17.216;2023-09-30T04:27:51;100395.00;;;17.53;91.53
79136;BME280;68533;51.090;17.216;2023-09-30T04:30:19;100393.88;;;17.45;92.06
79136;BME280;68533;51.090;17.216;2023-09-30T04:32:48;100404.69;;;17.38;92.24
79136;BME280;68533;51.090;17.216;2023-09-30T04:35:14;100410.75;;;17.31;92.05
79136;BME280;68533;51.090;17.216;2023-09-30T04:37:42;100406.16;;;17.27;92.83
79136;BME280;68533;51.090;17.216;2023-09-30T04:40:09;100416.94;;;17.28;93.28
79136;BME280;68533;51.090;17.216;2023-09-30T04:42:46;100427.25;;;17.28;93.71
79136;BME280;68533;51.090;17.216;2023-09-30T04:45:15;100431.50;;;17.34;93.45
79136;BME280;68533;51.090;17.216;2023-09-30T04:47:53;100425.97;;;17.34;93.62
79136;BME280;68533;51.090;17.216;2023-09-30T04:50:21;100430.69;;;17.33;93.94
79136;BME280;68533;51.090;17.216;2023-09-30T04:52:51;100430.38;;;17.26;93.53
79136;BME280;68533;51.090;17.216;2023-09-30T04:55:20;100433.31;;;17.21;94.19
79136;BME280;68533;51.090;17.216;2023-09-30T04:57:47;100434.78;;;17.19;93.79
79136;BME280;68533;51.090;17.216;2023-09-30T05:00:18;100443.13;;;17.19;94.30
79136;BME280;68533;51.090;17.216;2023-09-30T05:02:45;100448.34;;;17.20;94.53
79136;BME280;68533;51.090;17.216;2023-09-30T05:05:14;100450.81;;;17.22;94.24
79136;BME280;68533;51.090;17.216;2023-09-30T05:07:41;100459.63;;;17.24;94.27
79136;BME280;68533;51.090;17.216;2023-09-30T05:10:12;100455.84;;;17.28;93.21
79136;BME280;68533;51.090;17.216;2023-09-30T05:12:42;100472.53;;;17.28;93.65
79136;BME280;68533;51.090;17.216;2023-09-30T05:15:15;100474.34;;;17.24;94.27
79136;BME280;68533;51.090;17.216;2023-09-30T05:17:43;100490.69;;;17.26;94.13
79136;BME280;68533;51.090;17.216;2023-09-30T05:20:13;100486.44;;;17.28;94.16
79136;BME280;68533;51.090;17.216;2023-09-30T05:22:40;100490.19;;;17.32;93.82
79136;BME280;68533;51.090;17.216;2023-09-30T05:25:15;100491.50;;;17.35;93.44
79136;BME280;68533;51.090;17.216;2023-09-30T05:27:45;100490.19;;;17.32;94.32
79136;BME280;68533;51.090;17.216;2023-09-30T05:30:13;100493.44;;;17.34;94.32
79136;BME280;68533;51.090;17.216;2023-09-30T05:32:43;100490.66;;;17.34;94.03
79136;BME280;68533;51.090;17.216;2023-09-30T05:35:17;100494.63;;;17.33;93.16
79136;BME280;68533;51.090;17.216;2023-09-30T05:37:43;100503.09;;;17.28;94.70
79136;BME280;68533;51.090;17.216;2023-09-30T05:40:11;100509.34;;;17.25;94.13
79136;BME280;68533;51.090;17.216;2023-09-30T05:42:57;100514.22;;;17.28;94.37
79136;BME280;68533;51.090;17.216;2023-09-30T05:45:27;100506.88;;;17.32;93.99
79136;BME280;68533;51.090;17.216;2023-09-30T05:47:56;100508.03;;;17.40;93.71
79136;BME280;68533;51.090;17.216;2023-09-30T05:50:28;100515.53;;;17.48;93.38
79136;BME280;68533;51.090;17.216;2023-09-30T05:52:55;100522.56;;;17.54;93.25
79136;BME280;68533;51.090;17.216;2023-09-30T05:55:22;100521.56;;;17.59;93.20
79136;BME280;68533;51.090;17.216;2023-09-30T05:57:48;100511.78;;;17.61;93.12
79136;BME280;68533;51.090;17.216;2023-09-30T06:00:16;100508.16;;;17.61;93.25
79136;BME280;68533;51.090;17.216;2023-09-30T06:02:57;100509.84;;;17.62;92.92
79136;BME280;68533;51.090;17.216;2023-09-30T06:05:23;100511.63;;;17.66;93.07
79136;BME280;68533;51.090;17.216;2023-09-30T06:07:50;100508.63;;;17.89;91.62
79136;BME280;68533;51.090;17.216;2023-09-30T06:10:16;100510.88;;;18.04;91.03
79136;BME280;68533;51.090;17.216;2023-09-30T06:12:47;100519.09;;;18.00;91.11
79136;BME280;68533;51.090;17.216;2023-09-30T06:15:17;100522.88;;;17.87;91.64
79136;BME280;68533;51.090;17.216;2023-09-30T06:17:51;100522.03;;;17.87;92.36
79136;BME280;68533;51.090;17.216;2023-09-30T06:20:20;100526.47;;;17.88;92.47
79136;BME280;68533;51.090;17.216;2023-09-30T06:22:52;100519.94;;;17.92;91.75
79136;BME280;68533;51.090;17.216;2023-09-30T06:25:23;100529.09;;;17.84;92.54
79136;BME280;68533;51.090;17.216;2023-09-30T06:27:50;100535.63;;;17.79;92.45
79136;BME280;68533;51.090;17.216;2023-09-30T06:30:17;100543.66;;;17.64;93.13
79136;BME280;68533;51.090;17.216;2023-09-30T06:32:45;100550.84;;;17.56;93.04
79136;BME280;68533;51.090;17.216;2023-09-30T06:35:11;100565.91;;;17.55;93.79
79136;BME280;68533;51.090;17.216;2023-09-30T06:37:40;100580.13;;;17.45;94.22
79136;BME280;68533;51.090;17.216;2023-09-30T06:40:09;100584.69;;;17.24;91.56
79136;BME280;68533;51.090;17.216;2023-09-30T06:42:39;100586.78;;;17.10;91.27
79136;BME280;68533;51.090;17.216;2023-09-30T06:45:06;100588.72;;;17.00;91.08
79136;BME280;68533;51.090;17.216;2023-09-30T06:47:33;100598.16;;;16.91;90.36
79136;BME280;68533;51.090;17.216;2023-09-30T06:50:22;100598.59;;;16.76;91.40
79136;BME280;68533;51.090;17.216;2023-09-30T06:52:49;100617.06;;;16.72;90.46
79136;BME280;68533;51.090;17.216;2023-09-30T06:55:15;100618.97;;;16.62;89.71
79136;BME280;68533;51.090;17.216;2023-09-30T06:57:45;100628.56;;;16.56;90.61
79136;BME280;68533;51.090;17.216;2023-09-30T07:00:15;100632.34;;;16.38;90.64
79136;BME280;68533;51.090;17.216;2023-09-30T07:02:42;100636.09;;;16.34;89.83
79136;BME280;68533;51.090;17.216;2023-09-30T07:05:09;100643.75;;;16.28;89.25
79136;BME280;68533;51.090;17.216;2023-09-30T07:07:36;100644.66;;;16.23;89.69
79136;BME280;68533;51.090;17.216;2023-09-30T07:10:05;100652.75;;;16.11;91.04
79136;BME280;68533;51.090;17.216;2023-09-30T07:12:32;100652.25;;;16.09;90.61
79136;BME280;68533;51.090;17.216;2023-09-30T07:15:05;100665.72;;;16.02;90.67
79136;BME280;68533;51.090;17.216;2023-09-30T07:17:33;100657.72;;;16.01;89.63
79136;BME280;68533;51.090;17.216;2023-09-30T07:20:00;100659.69;;;16.00;88.98
79136;BME280;68533;51.090;17.216;2023-09-30T07:22:27;100670.81;;;16.00;89.51
79136;BME280;68533;51.090;17.216;2023-09-30T07:24:52;100675.00;;;15.98;88.90
79136;BME280;68533;51.090;17.216;2023-09-30T07:27:19;100681.06;;;16.00;88.94
79136;BME280;68533;51.090;17.216;2023-09-30T07:29:45;100684.03;;;16.03;88.63
79136;BME280;68533;51.090;17.216;2023-09-30T07:32:11;100690.91;;;16.06;88.08
79136;BME280;68533;51.090;17.216;2023-09-30T07:34:44;100695.63;;;16.05;88.17
79136;BME280;68533;51.090;17.216;2023-09-30T07:37:13;100705.28;;;16.08;88.06
79136;BME280;68533;51.090;17.216;2023-09-30T07:39:40;100711.31;;;16.10;87.35
79136;BME280;68533;51.090;17.216;2023-09-30T07:42:09;100714.81;;;16.15;87.41
79136;BME280;68533;51.090;17.216;2023-09-30T07:44:35;100715.75;;;16.11;88.82
79136;BME280;68533;51.090;17.216;2023-09-30T07:47:04;100727.66;;;16.11;89.53
79136;BME280;68533;51.090;17.216;2023-09-30T07:49:40;100730.25;;;16.08;89.79
79136;BME280;68533;51.090;17.216;2023-09-30T07:52:07;100726.75;;;16.02;90.17
79136;BME280;68533;51.090;17.216;2023-09-30T07:54:33;100722.97;;;15.98;90.42
79136;BME280;68533;51.090;17.216;2023-09-30T07:57:00;100728.72;;;16.02;89.78
79136;BME280;68533;51.090;17.216;2023-09-30T07:59:26;100726.22;;;16.14;89.49
79136;BME280;68533;51.090;17.216;2023-09-30T08:01:53;100721.50;;;16.01;92.54
79136;BME280;68533;51.090;17.216;2023-09-30T08:04:22;100719.44;;;15.84;94.06
79136;BME280;68533;51.090;17.216;2023-09-30T08:06:51;100725.91;;;15.79;93.59
79136;BME280;68533;51.090;17.216;2023-09-30T08:09:18;100728.19;;;15.77;94.20
79136;BME280;68533;51.090;17.216;2023-09-30T08:11:44;100724.25;;;15.78;92.85
79136;BME280;68533;51.090;17.216;2023-09-30T08:14:10;100723.06;;;15.71;89.25
79136;BME280;68533;51.090;17.216;2023-09-30T08:16:37;100723.06;;;15.71;86.58
79136;BME280;68533;51.090;17.216;2023-09-30T08:19:05;100735.03;;;15.80;86.63
79136;BME280;68533;51.090;17.216;2023-09-30T08:21:33;100733.38;;;15.79;86.45
79136;BME280;68533;51.090;17.216;2023-09-30T08:24:00;100738.03;;;15.83;84.58
79136;BME280;68533;51.090;17.216;2023-09-30T08:26:26;100748.69;;;15.90;85.15
79136;BME280;68533;51.090;17.216;2023-09-30T08:28:52;100748.25;;;15.97;82.89
79136;BME280;68533;51.090;17.216;2023-09-30T08:31:20;100748.13;;;16.02;83.89
79136;BME280;68533;51.090;17.216;2023-09-30T08:33:47;100753.44;;;16.12;81.66
79136;BME280;68533;51.090;17.216;2023-09-30T08:36:15;100749.69;;;16.08;81.63
79136;BME280;68533;51.090;17.216;2023-09-30T08:38:46;100750.44;;;16.22;80.85
79136;BME280;68533;51.090;17.216;2023-09-30T08:41:27;100755.56;;;16.28;79.77
79136;BME280;68533;51.090;17.216;2023-09-30T08:43:55;100766.97;;;16.49;79.06
79136;BME280;68533;51.090;17.216;2023-09-30T08:46:25;100774.31;;;16.67;79.25
79136;BME280;68533;51.090;17.216;2023-09-30T08:48:53;100774.75;;;16.83;78.13
79136;BME280;68533;51.090;17.216;2023-09-30T08:51:22;100779.81;;;17.12;76.95
79136;BME280;68533;51.090;17.216;2023-09-30T08:53:53;100777.44;;;16.97;77.63
79136;BME280;68533;51.090;17.216;2023-09-30T08:56:20;100785.00;;;17.05;77.03
79136;BME280;68533;51.090;17.216;2023-09-30T08:59:00;100785.81;;;17.36;74.62
79136;BME280;68533;51.090;17.216;2023-09-30T09:01:31;100787.81;;;17.84;72.90
79136;BME280;68533;51.090;17.216;2023-09-30T09:04:00;100786.53;;;17.99;72.61
79136;BME280;68533;51.090;17.216;2023-09-30T09:06:29;100795.22;;;18.06;73.25
79136;BME280;68533;51.090;17.216;2023-09-30T09:09:13;100806.25;;;17.63;73.32
79136;BME280;68533;51.090;17.216;2023-09-30T09:11:39;100809.84;;;17.63;72.69
79136;BME280;68533;51.090;17.216;2023-09-30T09:14:06;100823.16;;;19.30;67.13
79136;BME280;68533;51.090;17.216;2023-09-30T09:16:34;100826.03;;;21.13;61.24
79136;BME280;68533;51.090;17.216;2023-09-30T09:19:13;100819.13;;;20.15;59.84
79136;BME280;68533;51.090;17.216;2023-09-30T09:21:53;100822.72;;;19.95;60.64
79136;BME280;68533;51.090;17.216;2023-09-30T09:24:30;100831.50;;;21.10;57.39
79136;BME280;68533;51.090;17.216;2023-09-30T09:29:34;100834.16;;;22.49;52.49
79136;BME280;68533;51.090;17.216;2023-09-30T09:32:13;100832.22;;;22.77;51.73
79136;BME280;68533;51.090;17.216;2023-09-30T09:34:41;100828.56;;;23.32;51.54
79136;BME280;68533;51.090;17.216;2023-09-30T09:37:21;100830.88;;;22.46;51.76
79136;BME280;68533;51.090;17.216;2023-09-30T09:39:57;100833.72;;;20.83;56.62
79136;BME280;68533;51.090;17.216;2023-09-30T09:42:31;100831.50;;;21.10;56.64
79136;BME280;68533;51.090;17.216;2023-09-30T09:44:59;100827.22;;;19.79;59.59
79136;BME280;68533;51.090;17.216;2023-09-30T09:47:26;100829.31;;;20.82;56.27
79136;BME280;68533;51.090;17.216;2023-09-30T09:49:57;100818.72;;;22.02;51.37
79136;BME280;68533;51.090;17.216;2023-09-30T09:52:27;100832.25;;;21.76;49.33
79136;BME280;68533;51.090;17.216;2023-09-30T09:54:57;100831.53;;;22.28;47.66
79136;BME280;68533;51.090;17.216;2023-09-30T09:57:25;100837.38;;;22.23;50.10
79136;BME280;68533;51.090;17.216;2023-09-30T09:59:52;100831.38;;;22.89;47.33
79136;BME280;68533;51.090;17.216;2023-09-30T10:02:19;100835.63;;;21.82;47.52
79136;BME280;68533;51.090;17.216;2023-09-30T10:04:46;100827.84;;;21.99;49.10
79136;BME280;68533;51.090;17.216;2023-09-30T10:07:25;100822.06;;;21.47;48.01
79136;BME280;68533;51.090;17.216;2023-09-30T10:09:55;100841.16;;;21.12;49.75
79136;BME280;68533;51.090;17.216;2023-09-30T10:12:25;100824.72;;;21.44;48.93
79136;BME280;68533;51.090;17.216;2023-09-30T10:14:52;100826.41;;;21.93;47.99
79136;BME280;68533;51.090;17.216;2023-09-30T10:18:00;100822.25;;;22.39;48.24
79136;BME280;68533;51.090;17.216;2023-09-30T10:20:31;100825.72;;;21.96;47.54
79136;BME280;68533;51.090;17.216;2023-09-30T10:25:45;100816.44;;;22.72;45.45
79136;BME280;68533;51.090;17.216;2023-09-30T10:28:36;100816.16;;;23.33;45.35
79136;BME280;68533;51.090;17.216;2023-09-30T10:36:31;100823.66;;;21.24;48.72
79136;BME280;68533;51.090;17.216;2023-09-30T10:38:59;100821.81;;;19.83;51.14
79136;BME280;68533;51.090;17.216;2023-09-30T10:49:43;100830.91;;;19.71;51.33
79136;BME280;68533;51.090;17.216;2023-09-30T10:52:09;100828.13;;;19.71;52.51
79136;BME280;68533;51.090;17.216;2023-09-30T10:54:36;100833.28;;;20.10;51.38
79136;BME280;68533;51.090;17.216;2023-09-30T10:57:02;100835.75;;;20.12;51.42
79136;BME280;68533;51.090;17.216;2023-09-30T10:59:31;100837.06;;;19.85;51.15
79136;BME280;68533;51.090;17.216;2023-09-30T11:01:58;100834.34;;;19.13;52.12
79136;BME280;68533;51.090;17.216;2023-09-30T11:04:26;100842.06;;;18.98;53.02
79136;BME280;68533;51.090;17.216;2023-09-30T11:06:53;100833.06;;;19.10;52.21
79136;BME280;68533;51.090;17.216;2023-09-30T11:09:21;100830.25;;;19.10;52.99
79136;BME280;68533;51.090;17.216;2023-09-30T11:11:52;100836.38;;;19.50;51.15
79136;BME280;68533;51.090;17.216;2023-09-30T11:14:24;100845.72;;;20.22;49.51
79136;BME280;68533;51.090;17.216;2023-09-30T11:16:53;100849.56;;;21.33;46.56
79136;BME280;68533;51.090;17.216;2023-09-30T11:19:21;100850.44;;;21.70;46.57
79136;BME280;68533;51.090;17.216;2023-09-30T11:21:50;100847.47;;;21.09;46.48
79136;BME280;68533;51.090;17.216;2023-09-30T11:24:18;100841.22;;;21.69;47.13
79136;BME280;68533;51.090;17.216;2023-09-30T11:26:47;100851.66;;;21.36;45.66
79136;BME280;68533;51.090;17.216;2023-09-30T11:29:16;100851.22;;;20.60;47.30
79136;BME280;68533;51.090;17.216;2023-09-30T11:31:47;100850.66;;;20.16;48.46
79136;BME280;68533;51.090;17.216;2023-09-30T11:34:15;100849.34;;;19.55;48.65
79136;BME280;68533;51.090;17.216;2023-09-30T11:39:27;100845.44;;;19.38;48.55
79136;BME280;68533;51.090;17.216;2023-09-30T11:42:01;100838.56;;;19.27;48.73
79136;BME280;68533;51.090;17.216;2023-09-30T11:44:28;100844.03;;;19.07;49.07
79136;BME280;68533;51.090;17.216;2023-09-30T11:47:01;100843.41;;;19.01;50.90
79136;BME280;68533;51.090;17.216;2023-09-30T11:49:37;100840.94;;;18.82;50.11
79136;BME280;68533;51.090;17.216;2023-09-30T11:52:08;100848.66;;;19.03;50.88
79136;BME280;68533;51.090;17.216;2023-09-30T11:54:37;100848.22;;;19.85;51.03
79136;BME280;68533;51.090;17.216;2023-09-30T11:57:05;100850.84;;;21.03;46.79
79136;BME280;68533;51.090;17.216;2023-09-30T11:59:36;100849.97;;;22.17;46.33
79136;BME280;68533;51.090;17.216;2023-09-30T12:02:08;100847.03;;;21.64;45.61
79136;BME280;68533;51.090;17.216;2023-09-30T12:04:38;100845.63;;;20.60;48.02
79136;BME280;68533;51.090;17.216;2023-09-30T12:07:06;100849.22;;;20.81;47.96
79136;BME280;68533;51.090;17.216;2023-09-30T12:09:38;100851.69;;;21.15;47.08
79136;BME280;68533;51.090;17.216;2023-09-30T12:12:05;100846.94;;;21.85;46.39
79136;BME280;68533;51.090;17.216;2023-09-30T12:14:38;100841.94;;;22.03;45.57
79136;BME280;68533;51.090;17.216;2023-09-30T12:17:05;100849.16;;;22.28;44.47
79136;BME280;68533;51.090;17.216;2023-09-30T12:19:32;100855.75;;;21.39;45.08
79136;BME280;68533;51.090;17.216;2023-09-30T12:21:58;100851.59;;;21.69;45.36
79136;BME280;68533;51.090;17.216;2023-09-30T12:24:26;100844.88;;;21.25;45.97
79136;BME280;68533;51.090;17.216;2023-09-30T12:26:52;100852.63;;;21.89;45.46
79136;BME280;68533;51.090;17.216;2023-09-30T12:29:20;100851.97;;;22.04;44.33
79136;BME280;68533;51.090;17.216;2023-09-30T12:31:52;100838.31;;;21.90;45.76
79136;BME280;68533;51.090;17.216;2023-09-30T12:34:21;100838.59;;;22.50;43.31
79136;BME280;68533;51.090;17.216;2023-09-30T12:36:51;100839.81;;;21.88;44.44
79136;BME280;68533;51.090;17.216;2023-09-30T12:39:17;100844.00;;;22.70;43.00
79136;BME280;68533;51.090;17.216;2023-09-30T12:41:49;100841.84;;;21.99;43.46
79136;BME280;68533;51.090;17.216;2023-09-30T12:44:16;100843.63;;;21.14;46.10
79136;BME280;68533;51.090;17.216;2023-09-30T12:46:43;100842.13;;;19.92;48.86
79136;BME280;68533;51.090;17.216;2023-09-30T12:49:09;100838.13;;;20.72;47.93
79136;BME280;68533;51.090;17.216;2023-09-30T12:51:36;100852.38;;;21.57;45.34
79136;BME280;68533;51.090;17.216;2023-09-30T12:54:03;100854.19;;;22.23;45.00
79136;BME280;68533;51.090;17.216;2023-09-30T12:56:29;100853.22;;;21.94;43.88
79136;BME280;68533;51.090;17.216;2023-09-30T12:58:56;100859.03;;;21.53;45.70
79136;BME280;68533;51.090;17.216;2023-09-30T13:01:22;100852.50;;;21.73;45.52
79136;BME280;68533;51.090;17.216;2023-09-30T13:03:50;100859.59;;;22.56;44.36
79136;BME280;68533;51.090;17.216;2023-09-30T13:06:17;100847.00;;;22.50;44.53
79136;BME280;68533;51.090;17.216;2023-09-30T13:08:44;100857.78;;;22.23;45.06
79136;BME280;68533;51.090;17.216;2023-09-30T13:11:10;100846.91;;;21.49;46.25